Puget — AEQW — position and weather

sailwx.info

Track history (hours):
 
Tides and Currents Weather Stations Pressure Air Temp Water Temp Dewpoint Dewpoint Depression Visibility Wind Speed Wind Dir Waves Ship Positions

Puget

Last reported at 2015-Jan-26 23:10 UTC. Time now 2015-Jan-29 06:22 UTC.
Position N 47°15' W 122°35'.

Length 20 m; draft 0.2 m.

Type: Ship. MMSI: 369970510.

Date/timePositionNaut miles runAvg speedWind from/ knotsBaromVisibWave heightAir tempDewpointWater temp
2015-Jan-26 23:10N 47°15' W 122°35'2 2.0
2015-Jan-26 22:21N 47°16' W 122°33'5 6.0
2015-Jan-26 21:28N 47°21' W 122°33'5 4.8
2015-Jan-26 20:31N 47°25' W 122°31'1 0.6
2015-Jan-26 19:33N 47°26' W 122°32'5 4.6
2015-Jan-26 18:33N 47°30' W 122°29'6 6.3
2015-Jan-26 17:33N 47°36' W 122°27'4 4.1
2015-Jan-26 16:33N 47°40' W 122°24'  
2015-Jan-23 00:32N 47°40' W 122°24'0 0.0
2015-Jan-22 23:33N 47°40' W 122°24'0 0.4
2015-Jan-22 22:33N 47°40' W 122°23'5 4.3
2015-Jan-22 21:25N 47°37' W 122°29'2 1.9
2015-Jan-22 20:33N 47°37' W 122°31'0 0.0
2015-Jan-22 19:12N 47°37' W 122°31'2 3.0
2015-Jan-22 18:30N 47°36' W 122°29'5 5.2
2015-Jan-22 17:33N 47°31' W 122°30'7 6.5
2015-Jan-22 16:32N 47°37' W 122°26'3 3.1
2015-Jan-22 15:28N 47°40' W 122°24'0 0.0
2015-Jan-21 23:33N 47°40' W 122°24'1 0.8
2015-Jan-21 22:50N 47°40' W 122°23'0 5.8
2015-Jan-21 22:46N 47°40' W 122°22'2 0.3
2015-Jan-21 17:12N 47°39' W 122°20'3 4.0
2015-Jan-21 16:33N 47°40' W 122°24'0 0.0
2015-Jan-21 15:33N 47°40' W 122°24'  
Track history (hours):
 
Tides and Currents Weather Stations Pressure Air Temp Water Temp Dewpoint Dewpoint Depression Visibility Wind Speed Wind Dir Waves Ship Positions

Puget

Last reported at 2015-Jan-26 23:10 UTC. Time now 2015-Jan-29 06:22 UTC.
Position N 47°15' W 122°35'.

Length 20 m; draft 0.2 m.

Type: Ship. MMSI: 369970510.

Date/timePositionNaut miles runAvg speedWind from/ knotsBaromVisibWave heightAir tempDewpointWater temp
2015-Jan-26 23:10N 47°15' W 122°35'2 2.0
2015-Jan-26 22:21N 47°16' W 122°33'5 6.0
2015-Jan-26 21:28N 47°21' W 122°33'5 4.8
2015-Jan-26 20:31N 47°25' W 122°31'1 0.6
2015-Jan-26 19:33N 47°26' W 122°32'5 4.6
2015-Jan-26 18:33N 47°30' W 122°29'6 6.3
2015-Jan-26 17:33N 47°36' W 122°27'4 4.1
2015-Jan-26 16:33N 47°40' W 122°24'  
2015-Jan-23 00:32N 47°40' W 122°24'0 0.0
2015-Jan-22 23:33N 47°40' W 122°24'0 0.4
2015-Jan-22 22:33N 47°40' W 122°23'5 4.3
2015-Jan-22 21:25N 47°37' W 122°29'2 1.9
2015-Jan-22 20:33N 47°37' W 122°31'0 0.0
2015-Jan-22 19:12N 47°37' W 122°31'2 3.0
2015-Jan-22 18:30N 47°36' W 122°29'5 5.2
2015-Jan-22 17:33N 47°31' W 122°30'7 6.5
2015-Jan-22 16:32N 47°37' W 122°26'3 3.1
2015-Jan-22 15:28N 47°40' W 122°24'0 0.0
2015-Jan-21 23:33N 47°40' W 122°24'1 0.8
2015-Jan-21 22:50N 47°40' W 122°23'0 5.8
2015-Jan-21 22:46N 47°40' W 122°22'2 0.3
2015-Jan-21 17:12N 47°39' W 122°20'3 4.0
2015-Jan-21 16:33N 47°40' W 122°24'0 0.0
2015-Jan-21 15:33N 47°40' W 122°24'  

Dump ship's entire track history